createdAt,value
2022-09-11T00:01:14.015Z,16.90
2022-09-11T00:03:42.724Z,17.10
2022-09-11T00:06:12.732Z,17.10
2022-09-11T00:08:40.906Z,17.10
2022-09-11T00:11:13.880Z,17.10
2022-09-11T00:13:41.175Z,17.00
2022-09-11T00:16:19.390Z,17.00
2022-09-11T00:18:46.894Z,16.90
2022-09-11T00:21:13.742Z,16.90
2022-09-11T00:23:40.652Z,16.90
2022-09-11T00:26:07.592Z,16.90
2022-09-11T00:28:34.516Z,16.90
2022-09-11T00:31:05.251Z,16.80
2022-09-11T00:33:33.164Z,16.70
2022-09-11T00:36:06.339Z,16.70
2022-09-11T00:38:35.888Z,16.60
2022-09-11T00:41:07.006Z,16.70
2022-09-11T00:44:12.170Z,16.70
2022-09-11T00:46:55.511Z,16.70
2022-09-11T00:49:44.750Z,16.70
2022-09-11T00:52:27.596Z,16.60
2022-09-11T00:55:07.274Z,16.60
2022-09-11T00:57:40.658Z,16.70
2022-09-11T01:00:08.839Z,16.70
2022-09-11T01:02:38.458Z,16.80
2022-09-11T01:05:06.158Z,16.70
2022-09-11T01:07:34.485Z,16.70
2022-09-11T01:10:02.641Z,16.70
2022-09-11T01:13:05.646Z,16.70
2022-09-11T01:15:47.446Z,16.50
2022-09-11T01:18:30.711Z,16.40
2022-09-11T01:21:35.682Z,16.30
2022-09-11T01:24:36.239Z,16.30
2022-09-11T01:27:40.074Z,16.10
2022-09-11T01:30:14.934Z,16.00
2022-09-11T01:32:41.587Z,15.90
2022-09-11T01:35:18.074Z,15.80
2022-09-11T01:37:54.411Z,15.70
2022-09-11T01:40:36.775Z,15.60
2022-09-11T01:43:16.265Z,15.60
2022-09-11T01:45:46.358Z,15.50
2022-09-11T01:48:18.408Z,15.40
2022-09-11T01:50:47.501Z,15.50
2022-09-11T01:53:17.536Z,15.60
2022-09-11T01:55:55.463Z,15.70
2022-09-11T01:58:42.077Z,15.70
2022-09-11T02:01:22.968Z,15.80
2022-09-11T02:03:55.728Z,15.80
2022-09-11T02:06:29.047Z,15.80
2022-09-11T02:09:03.656Z,15.80
2022-09-11T02:11:34.304Z,15.80
2022-09-11T02:14:16.131Z,15.80
2022-09-11T02:16:57.888Z,15.60
2022-09-11T02:19:27.570Z,15.40
2022-09-11T02:21:55.327Z,15.40
2022-09-11T02:24:25.207Z,15.30
2022-09-11T02:26:55.627Z,15.40
2022-09-11T02:29:24.445Z,15.30
2022-09-11T02:31:52.255Z,15.30
2022-09-11T02:34:26.844Z,15.20
2022-09-11T02:36:54.823Z,15.30
2022-09-11T02:39:57.792Z,15.10
2022-09-11T02:42:58.078Z,15.20
2022-09-11T02:45:35.686Z,15.10
2022-09-11T02:48:21.373Z,15.10
2022-09-11T02:51:09.753Z,15.20
2022-09-11T02:54:04.880Z,15.20
2022-09-11T02:57:16.671Z,15.10
2022-09-11T02:59:50.098Z,15.10
2022-09-11T03:02:18.476Z,15.00
2022-09-11T03:04:45.696Z,14.80
2022-09-11T03:07:12.451Z,14.70
2022-09-11T03:09:41.227Z,14.60
2022-09-11T03:12:08.073Z,14.70
2022-09-11T03:14:35.938Z,14.80
2022-09-11T03:17:02.702Z,14.90
2022-09-11T03:19:30.593Z,14.90
2022-09-11T03:21:57.344Z,14.90
2022-09-11T03:24:24.123Z,14.90
2022-09-11T03:26:50.883Z,15.00
2022-09-11T03:29:17.704Z,15.10
2022-09-11T03:31:44.423Z,15.00
2022-09-11T03:34:11.530Z,15.00
2022-09-11T03:36:38.251Z,15.10
2022-09-11T03:39:05.169Z,15.00
2022-09-11T03:41:32.659Z,14.90
2022-09-11T03:43:59.462Z,14.90
2022-09-11T03:46:26.215Z,14.80
2022-09-11T03:48:53.346Z,14.70
2022-09-11T03:51:21.137Z,14.50
2022-09-11T03:53:48.261Z,14.60
2022-09-11T03:56:15.025Z,14.60
2022-09-11T03:58:43.222Z,14.50
2022-09-11T04:01:15.169Z,14.50
2022-09-11T04:03:42.665Z,14.50
2022-09-11T04:06:10.750Z,14.40
2022-09-11T04:08:41.258Z,14.40
2022-09-11T04:11:09.943Z,14.50
2022-09-11T04:13:39.873Z,14.50
2022-09-11T04:16:10.104Z,14.50
2022-09-11T04:18:39.165Z,14.50
2022-09-11T04:21:07.590Z,14.50
2022-09-11T04:23:34.539Z,14.50
2022-09-11T04:26:02.048Z,14.50
2022-09-11T04:28:30.586Z,14.50
2022-09-11T04:31:03.598Z,14.50
2022-09-11T04:33:30.511Z,14.40
2022-09-11T04:35:57.249Z,14.30
2022-09-11T04:38:23.987Z,14.20
2022-09-11T04:40:51.040Z,14.30
2022-09-11T04:43:17.853Z,14.40
2022-09-11T04:45:44.640Z,14.30
2022-09-11T04:48:11.415Z,14.40
2022-09-11T04:50:38.171Z,14.30
2022-09-11T04:53:04.963Z,14.30
2022-09-11T04:55:31.679Z,14.30
2022-09-11T04:57:58.402Z,14.30
2022-09-11T05:00:25.194Z,14.20
2022-09-11T05:02:54.550Z,14.30
2022-09-11T05:05:21.284Z,14.30
2022-09-11T05:07:50.979Z,14.30
2022-09-11T05:10:17.727Z,14.10
2022-09-11T05:12:44.453Z,14.10
2022-09-11T05:15:11.362Z,14.10
2022-09-11T05:17:39.364Z,14.20
2022-09-11T05:20:11.212Z,14.20
2022-09-11T05:22:38.677Z,14.20
2022-09-11T05:25:05.465Z,14.30
2022-09-11T05:27:32.192Z,14.20
2022-09-11T05:29:58.882Z,14.20
2022-09-11T05:32:25.647Z,14.20
2022-09-11T05:34:52.461Z,14.10
2022-09-11T05:37:19.259Z,14.20
2022-09-11T05:39:46.085Z,14.10
2022-09-11T05:42:12.912Z,14.00
2022-09-11T05:44:40.730Z,14.10
2022-09-11T05:47:07.549Z,14.20
2022-09-11T05:49:34.330Z,14.10
2022-09-11T05:52:01.610Z,14.10
2022-09-11T05:54:29.018Z,14.20
2022-09-11T05:56:55.887Z,14.20
2022-09-11T05:59:22.707Z,14.00
2022-09-11T06:01:50.434Z,13.90
2022-09-11T06:04:18.617Z,13.90
2022-09-11T06:06:48.095Z,13.90
2022-09-11T06:09:15.441Z,13.80
2022-09-11T06:11:42.383Z,13.70
2022-09-11T06:14:09.622Z,13.70
2022-09-11T06:16:36.414Z,13.90
2022-09-11T06:19:05.806Z,13.80
2022-09-11T06:21:32.645Z,13.80
2022-09-11T06:23:59.335Z,13.80
2022-09-11T06:26:27.199Z,13.90
2022-09-11T06:28:54.649Z,14.10
2022-09-11T06:31:24.344Z,14.10
2022-09-11T06:33:51.463Z,14.00
2022-09-11T06:36:20.186Z,14.10
2022-09-11T06:38:47.387Z,14.10
2022-09-11T06:41:16.371Z,14.00
2022-09-11T06:43:44.184Z,13.80
2022-09-11T06:46:17.065Z,13.90
2022-09-11T06:48:45.796Z,13.90
2022-09-11T06:51:15.248Z,13.80
2022-09-11T06:53:42.594Z,13.90
2022-09-11T06:56:17.775Z,14.00
2022-09-11T06:58:46.021Z,14.10
2022-09-11T07:01:15.525Z,14.10
2022-09-11T07:03:47.160Z,14.20
2022-09-11T07:06:15.816Z,14.10
2022-09-11T07:08:42.647Z,14.20
2022-09-11T07:11:11.767Z,14.20
2022-09-11T07:13:39.846Z,14.30
2022-09-11T07:16:08.937Z,14.30
2022-09-11T07:18:37.595Z,14.30
2022-09-11T07:21:09.171Z,14.50
2022-09-11T07:23:36.059Z,14.60
2022-09-11T07:26:08.895Z,14.80
2022-09-11T07:28:37.752Z,14.80
2022-09-11T07:31:10.799Z,14.90
2022-09-11T07:33:46.182Z,15.20
2022-09-11T07:36:14.427Z,15.40
2022-09-11T07:38:42.790Z,15.40
2022-09-11T07:41:10.570Z,15.40
2022-09-11T07:43:38.653Z,15.50
2022-09-11T07:46:06.493Z,15.70
2022-09-11T07:48:33.289Z,15.80
2022-09-11T07:51:04.389Z,16.00
2022-09-11T07:53:43.801Z,16.00
2022-09-11T07:56:13.339Z,16.10
2022-09-11T07:58:41.531Z,16.20
2022-09-11T08:01:16.468Z,16.40
2022-09-11T08:03:44.295Z,16.50
2022-09-11T08:06:14.791Z,16.60
2022-09-11T08:08:43.495Z,16.70
2022-09-11T08:11:12.986Z,16.90
2022-09-11T08:13:40.060Z,17.10
2022-09-11T08:16:07.498Z,17.30
2022-09-11T08:18:35.341Z,17.30
2022-09-11T08:21:03.521Z,17.50
2022-09-11T08:23:32.136Z,17.50
2022-09-11T08:26:06.255Z,17.60
2022-09-11T08:28:34.710Z,18.00
2022-09-11T08:31:05.270Z,18.10
2022-09-11T08:33:35.900Z,18.30
2022-09-11T08:36:06.084Z,18.50
2022-09-11T08:38:35.990Z,18.80
2022-09-11T08:41:36.642Z,18.90
2022-09-11T08:44:12.180Z,19.20
2022-09-11T08:46:46.789Z,19.20
2022-09-11T08:49:17.588Z,19.00
2022-09-11T08:51:58.551Z,19.20
2022-09-11T08:54:39.456Z,19.50
2022-09-11T08:57:24.752Z,19.80
2022-09-11T09:00:13.155Z,20.00
2022-09-11T09:02:59.669Z,20.50
2022-09-11T09:05:36.115Z,20.80
2022-09-11T09:08:24.407Z,20.60
2022-09-11T09:11:11.204Z,20.40
2022-09-11T09:14:09.207Z,20.10
2022-09-11T09:17:05.378Z,20.10
2022-09-11T09:20:00.777Z,20.00
2022-09-11T09:22:49.837Z,19.80
2022-09-11T09:25:25.370Z,19.50
2022-09-11T09:28:24.510Z,19.40
2022-09-11T09:31:02.355Z,19.10
2022-09-11T09:33:35.664Z,19.10
2022-09-11T09:36:28.136Z,19.10
2022-09-11T09:38:55.871Z,19.00
2022-09-11T09:41:41.745Z,18.90
2022-09-11T09:44:30.633Z,18.80
2022-09-11T09:46:58.538Z,19.00
2022-09-11T09:49:36.916Z,19.00
2022-09-11T09:52:25.201Z,19.10
2022-09-11T09:55:05.732Z,19.00
2022-09-11T09:57:39.961Z,18.80
2022-09-11T10:00:13.202Z,19.00
2022-09-11T10:02:45.710Z,19.30
2022-09-11T10:05:20.514Z,19.40
2022-09-11T10:07:53.795Z,19.40
2022-09-11T10:10:28.533Z,19.70
2022-09-11T10:13:17.498Z,19.90
2022-09-11T10:15:48.548Z,19.80
2022-09-11T10:18:36.081Z,20.00
2022-09-11T10:21:12.150Z,20.10
2022-09-11T10:23:59.735Z,20.10
2022-09-11T10:26:26.803Z,20.20
2022-09-11T10:29:15.288Z,20.20
2022-09-11T10:31:50.008Z,20.20
2022-09-11T10:34:22.684Z,20.30
2022-09-11T10:36:55.328Z,20.60
2022-09-11T10:39:25.150Z,20.80
2022-09-11T10:41:54.910Z,20.70
2022-09-11T10:44:23.537Z,20.70
2022-09-11T10:47:17.619Z,20.70
2022-09-11T10:49:46.506Z,20.60
2022-09-11T10:52:13.481Z,20.50
2022-09-11T10:55:00.263Z,20.20
2022-09-11T10:57:52.226Z,20.30
2022-09-11T11:00:20.365Z,20.20
2022-09-11T11:02:52.608Z,20.10
2022-09-11T11:05:27.165Z,20.00
2022-09-11T11:08:02.677Z,20.10
2022-09-11T11:10:32.481Z,20.30
2022-09-11T11:13:31.277Z,20.50
2022-09-11T11:16:01.080Z,20.70
2022-09-11T11:18:34.541Z,20.90
2022-09-11T11:21:40.107Z,21.10
2022-09-11T11:24:28.187Z,20.90
2022-09-11T11:27:44.850Z,21.10
2022-09-11T11:30:15.956Z,21.10
2022-09-11T11:33:04.961Z,21.40
2022-09-11T11:36:08.438Z,21.70
2022-09-11T11:39:00.393Z,22.20
2022-09-11T11:41:35.330Z,22.50
2022-09-11T11:44:12.271Z,22.30
2022-09-11T11:46:44.721Z,22.50
2022-09-11T11:49:27.114Z,22.40
2022-09-11T11:52:23.688Z,22.30
2022-09-11T11:55:20.498Z,22.30
2022-09-11T11:58:06.890Z,22.30
2022-09-11T12:00:41.057Z,22.80
2022-09-11T12:03:23.415Z,23.50
2022-09-11T12:05:50.383Z,24.00
2022-09-11T12:08:17.434Z,24.00
2022-09-11T12:10:59.130Z,24.00
2022-09-11T12:13:40.942Z,24.10
2022-09-11T12:16:29.125Z,24.00
2022-09-11T12:19:28.289Z,24.10
2022-09-11T12:21:54.979Z,24.20
2022-09-11T12:24:26.513Z,23.80
2022-09-11T12:27:34.689Z,23.90
2022-09-11T12:30:20.462Z,23.70
2022-09-11T12:32:53.417Z,23.50
2022-09-11T12:35:29.552Z,23.70
2022-09-11T12:38:09.550Z,24.10
2022-09-11T12:40:41.526Z,24.10
2022-09-11T12:43:26.710Z,23.40
2022-09-11T12:45:53.686Z,23.30
2022-09-11T12:48:40.571Z,23.20
2022-09-11T12:51:25.993Z,23.10
2022-09-11T12:53:56.923Z,23.00
2022-09-11T12:56:27.542Z,22.90
2022-09-11T12:58:59.248Z,22.90
2022-09-11T13:01:33.784Z,23.30
2022-09-11T13:04:09.899Z,23.50
2022-09-11T13:06:37.534Z,23.00
2022-09-11T13:09:05.771Z,24.60
2022-09-11T13:11:45.324Z,26.00
2022-09-11T13:14:24.588Z,25.90
2022-09-11T13:16:51.461Z,26.30
2022-09-11T13:19:20.681Z,27.50
2022-09-11T13:21:56.734Z,26.60
2022-09-11T13:24:31.072Z,25.60
2022-09-11T13:27:13.320Z,25.70
2022-09-11T13:29:43.015Z,27.60
2022-09-11T13:32:14.034Z,27.50
2022-09-11T13:34:47.490Z,26.60
2022-09-11T13:37:26.539Z,27.20
2022-09-11T13:39:53.718Z,26.30
2022-09-11T13:42:23.305Z,26.60
2022-09-11T13:44:53.464Z,26.80
2022-09-11T13:47:25.953Z,27.10
2022-09-11T13:49:56.410Z,27.20
2022-09-11T13:52:26.621Z,27.20
2022-09-11T13:54:57.298Z,26.20
2022-09-11T13:57:28.580Z,26.00
2022-09-11T13:59:57.078Z,25.90
2022-09-11T14:02:40.602Z,25.60
2022-09-11T14:05:15.475Z,25.20
2022-09-11T14:07:56.546Z,25.10
2022-09-11T14:10:34.085Z,26.10
2022-09-11T14:13:23.326Z,26.00
2022-09-11T14:15:58.062Z,26.30
2022-09-11T14:18:53.267Z,25.70
2022-09-11T14:21:32.716Z,25.00
2022-09-11T14:24:00.167Z,24.60
2022-09-11T14:26:35.051Z,24.20
2022-09-11T14:29:24.072Z,24.80
2022-09-11T14:31:52.748Z,25.40
2022-09-11T14:34:25.085Z,25.50
2022-09-11T14:37:05.494Z,26.00
2022-09-11T14:39:41.529Z,25.20
2022-09-11T14:42:17.051Z,24.40
2022-09-11T14:44:44.017Z,24.30
2022-09-11T14:47:19.603Z,24.90
2022-09-11T14:49:47.328Z,24.90
2022-09-11T14:52:22.727Z,24.50
2022-09-11T14:54:49.700Z,24.20
2022-09-11T14:57:25.269Z,24.90
2022-09-11T14:59:52.832Z,24.60
2022-09-11T15:02:22.184Z,24.70
2022-09-11T15:04:49.988Z,24.40
2022-09-11T15:07:18.776Z,24.40
2022-09-11T15:09:46.538Z,24.70
2022-09-11T15:12:14.652Z,24.70
2022-09-11T15:14:58.688Z,24.20
2022-09-11T15:17:31.604Z,23.90
2022-09-11T15:19:59.972Z,23.30
2022-09-11T15:22:26.858Z,23.50
2022-09-11T15:24:53.829Z,24.00
2022-09-11T15:27:22.861Z,23.90
2022-09-11T15:29:53.169Z,23.60
2022-09-11T15:32:23.612Z,23.80
2022-09-11T15:34:51.651Z,23.80
2022-09-11T15:37:18.916Z,23.50
2022-09-11T15:39:45.866Z,23.40
2022-09-11T15:42:13.582Z,23.30
2022-09-11T15:44:40.595Z,23.40
2022-09-11T15:47:07.937Z,23.30
2022-09-11T15:49:40.740Z,23.30
2022-09-11T15:52:08.975Z,23.20
2022-09-11T15:54:35.748Z,23.30
2022-09-11T15:57:03.014Z,23.10
2022-09-11T15:59:29.808Z,22.80
2022-09-11T16:01:56.686Z,22.90
2022-09-11T16:04:28.221Z,22.90
2022-09-11T16:06:55.820Z,22.80
2022-09-11T16:09:25.621Z,22.80
2022-09-11T16:11:54.685Z,22.80
2022-09-11T16:14:25.705Z,22.80
2022-09-11T16:16:54.526Z,22.80
2022-09-11T16:19:27.470Z,22.60
2022-09-11T16:21:56.596Z,22.60
2022-09-11T16:24:25.618Z,22.60
2022-09-11T16:26:56.658Z,22.60
2022-09-11T16:29:25.823Z,22.60
2022-09-11T16:31:52.679Z,22.50
2022-09-11T16:34:22.257Z,22.50
2022-09-11T16:36:50.092Z,22.60
2022-09-11T16:39:21.731Z,22.50
2022-09-11T16:41:48.753Z,22.50
2022-09-11T16:44:16.422Z,22.40
2022-09-11T16:46:45.196Z,22.40
2022-09-11T16:49:19.031Z,22.40
2022-09-11T16:51:48.030Z,22.40
2022-09-11T16:54:15.484Z,22.40
2022-09-11T16:56:45.895Z,22.40
2022-09-11T16:59:13.043Z,22.30
2022-09-11T17:01:40.112Z,22.20
2022-09-11T17:04:06.981Z,22.20
2022-09-11T17:06:34.502Z,22.20
2022-09-11T17:09:02.354Z,22.20
2022-09-11T17:11:31.607Z,22.10
2022-09-11T17:14:01.845Z,22.20
2022-09-11T17:16:32.149Z,22.10
2022-09-11T17:19:01.522Z,22.10
2022-09-11T17:21:30.362Z,22.00
2022-09-11T17:23:58.277Z,22.00
2022-09-11T17:26:25.321Z,21.90
2022-09-11T17:28:52.564Z,21.90
2022-09-11T17:31:19.901Z,21.90
2022-09-11T17:33:48.404Z,21.90
2022-09-11T17:36:18.183Z,21.80
2022-09-11T17:38:46.575Z,21.60
2022-09-11T17:41:14.294Z,21.60
2022-09-11T17:43:41.462Z,21.60
2022-09-11T17:46:16.988Z,21.60
2022-09-11T17:48:44.542Z,21.50
2022-09-11T17:51:21.251Z,21.50
2022-09-11T17:53:51.206Z,21.40
2022-09-11T17:56:21.119Z,21.40
2022-09-11T17:58:53.254Z,21.20
2022-09-11T18:01:20.440Z,21.20
2022-09-11T18:03:53.077Z,21.10
2022-09-11T18:06:30.319Z,21.00
2022-09-11T18:09:03.061Z,21.00
2022-09-11T18:11:30.663Z,21.00
2022-09-11T18:14:00.176Z,20.90
2022-09-11T18:16:27.177Z,20.80
2022-09-11T18:18:55.551Z,20.80
2022-09-11T18:21:26.781Z,20.70
2022-09-11T18:24:00.842Z,20.70
2022-09-11T18:26:30.183Z,20.60
2022-09-11T18:29:00.099Z,20.60
2022-09-11T18:31:30.119Z,20.50
2022-09-11T18:34:05.889Z,20.50
2022-09-11T18:36:34.132Z,20.40
2022-09-11T18:39:08.509Z,20.40
2022-09-11T18:41:35.693Z,20.30
2022-09-11T18:44:05.299Z,20.10
2022-09-11T18:46:35.398Z,20.10
2022-09-11T18:49:02.357Z,20.10
2022-09-11T18:51:42.350Z,20.20
2022-09-11T18:54:23.489Z,20.10
2022-09-11T18:56:50.647Z,20.00
2022-09-11T18:59:19.992Z,20.00
2022-09-11T19:01:47.554Z,20.00
2022-09-11T19:04:16.528Z,19.90
2022-09-11T19:06:49.632Z,19.80
2022-09-11T19:09:16.798Z,19.90
2022-09-11T19:11:43.620Z,19.70
2022-09-11T19:14:11.804Z,19.70
2022-09-11T19:16:43.531Z,19.60
2022-09-11T19:19:10.885Z,19.60
2022-09-11T19:21:40.432Z,19.40
2022-09-11T19:24:12.956Z,19.40
2022-09-11T19:26:43.662Z,19.30
2022-09-11T19:29:11.033Z,19.30
2022-09-11T19:31:39.453Z,19.40
2022-09-11T19:34:14.900Z,19.30
2022-09-11T19:36:41.857Z,19.30
2022-09-11T19:39:10.547Z,19.30
2022-09-11T19:41:38.626Z,19.20
2022-09-11T19:44:12.121Z,19.10
2022-09-11T19:46:41.268Z,19.20
2022-09-11T19:49:09.216Z,19.10
2022-09-11T19:51:38.626Z,19.10
2022-09-11T19:54:06.453Z,19.10
2022-09-11T19:56:38.962Z,19.10
2022-09-11T19:59:07.999Z,19.10
2022-09-11T20:01:35.742Z,19.10
2022-09-11T20:04:03.393Z,19.10
2022-09-11T20:06:33.000Z,19.00
2022-09-11T20:09:29.976Z,18.90
2022-09-11T20:11:48.032Z,18.90
2022-09-11T20:14:14.811Z,18.80
2022-09-11T20:16:41.675Z,18.80
2022-09-11T20:19:12.401Z,18.80
2022-09-11T20:21:39.431Z,18.80
2022-09-11T20:24:07.370Z,18.70
2022-09-11T20:26:34.382Z,18.70
2022-09-11T20:29:07.304Z,18.70
2022-09-11T20:31:47.503Z,18.70
2022-09-11T20:34:17.374Z,18.70
2022-09-11T20:36:44.360Z,18.60
2022-09-11T20:39:13.664Z,18.60
2022-09-11T20:41:40.838Z,18.50
2022-09-11T20:44:07.847Z,18.50
2022-09-11T20:46:34.739Z,18.40
2022-09-11T20:49:03.026Z,18.30
2022-09-11T20:51:30.657Z,18.30
2022-09-11T20:53:57.715Z,18.30
2022-09-11T20:56:25.030Z,18.30
2022-09-11T20:58:52.696Z,18.30
2022-09-11T21:01:22.775Z,18.10
2022-09-11T21:03:54.663Z,18.20
2022-09-11T21:06:26.968Z,18.20
2022-09-11T21:08:56.473Z,18.10
2022-09-11T21:11:27.133Z,18.10
2022-09-11T21:13:59.338Z,18.10
2022-09-11T21:16:27.128Z,17.90
2022-09-11T21:18:57.333Z,18.00
2022-09-11T21:21:28.035Z,17.90
2022-09-11T21:24:01.249Z,17.90
2022-09-11T21:26:29.258Z,17.90
2022-09-11T21:28:57.346Z,17.90
2022-09-11T21:31:25.752Z,17.80
2022-09-11T21:33:58.709Z,17.80
2022-09-11T21:36:26.198Z,17.80
2022-09-11T21:38:53.419Z,17.70
2022-09-11T21:41:20.389Z,17.60
2022-09-11T21:43:47.546Z,17.70
2022-09-11T21:46:15.141Z,17.70
2022-09-11T21:48:44.588Z,17.70
2022-09-11T21:51:17.100Z,17.60
2022-09-11T21:53:45.831Z,17.60
2022-09-11T21:56:21.561Z,17.50
2022-09-11T21:58:50.989Z,17.50
2022-09-11T22:01:19.979Z,17.50
2022-09-11T22:03:46.993Z,17.50
2022-09-11T22:06:14.369Z,17.50
2022-09-11T22:08:42.679Z,17.40
2022-09-11T22:11:10.456Z,17.40
2022-09-11T22:13:37.907Z,17.40
2022-09-11T22:16:13.456Z,17.40
2022-09-11T22:18:41.496Z,17.40
2022-09-11T22:21:09.045Z,17.40
2022-09-11T22:23:36.230Z,17.30
2022-09-11T22:26:05.656Z,17.30
2022-09-11T22:28:32.712Z,17.20
2022-09-11T22:30:59.537Z,17.20
2022-09-11T22:33:26.571Z,17.10
2022-09-11T22:35:53.424Z,17.00
2022-09-11T22:38:22.933Z,16.70
2022-09-11T22:40:53.649Z,16.50
2022-09-11T22:43:20.697Z,16.50
2022-09-11T22:45:57.443Z,16.60
2022-09-11T22:48:27.682Z,16.60
2022-09-11T22:50:57.106Z,16.70
2022-09-11T22:53:24.980Z,16.60
2022-09-11T22:55:54.153Z,16.70
2022-09-11T22:58:22.219Z,16.70
2022-09-11T23:00:50.476Z,16.70
2022-09-11T23:03:17.475Z,16.70
2022-09-11T23:06:04.264Z,16.70
2022-09-11T23:08:38.961Z,16.70
2022-09-11T23:11:06.762Z,16.60
2022-09-11T23:13:34.474Z,16.70
2022-09-11T23:16:13.813Z,16.70
2022-09-11T23:18:41.157Z,16.70
2022-09-11T23:21:08.543Z,16.70
2022-09-11T23:23:40.895Z,16.60
2022-09-11T23:26:11.917Z,16.70
2022-09-11T23:28:39.780Z,16.70
2022-09-11T23:31:17.451Z,16.60
2022-09-11T23:33:44.322Z,16.60
2022-09-11T23:36:13.488Z,16.60
2022-09-11T23:38:40.634Z,16.60
2022-09-11T23:41:07.741Z,16.50
2022-09-11T23:43:34.752Z,16.50
2022-09-11T23:46:01.638Z,16.50
2022-09-11T23:48:28.790Z,16.50
2022-09-11T23:50:55.542Z,16.50
2022-09-11T23:53:25.354Z,16.50
2022-09-11T23:55:52.211Z,16.50
2022-09-11T23:58:18.984Z,16.40
